sensor_id;sensor_type;location;lat;lon;timestamp;P1;durP1;ratioP1;P2;durP2;ratioP2
21251;SDS011;10784;50.578;17.878;2022-11-20T16:30:24;53.00;;;19.70;;
21251;SDS011;10784;50.578;17.878;2022-11-20T16:32:57;50.42;;;18.30;;
21251;SDS011;10784;50.578;17.878;2022-11-20T16:35:30;48.92;;;16.55;;
21251;SDS011;10784;50.578;17.878;2022-11-20T16:38:03;38.92;;;13.07;;
21251;SDS011;10784;50.578;17.878;2022-11-20T16:40:36;32.45;;;13.27;;
21251;SDS011;10784;50.578;17.878;2022-11-20T16:43:10;39.70;;;15.20;;
21251;SDS011;10784;50.578;17.878;2022-11-20T16:45:43;41.60;;;14.13;;
21251;SDS011;10784;50.578;17.878;2022-11-20T16:48:16;44.40;;;15.90;;
21251;SDS011;10784;50.578;17.878;2022-11-20T16:50:50;38.83;;;13.68;;
21251;SDS011;10784;50.578;17.878;2022-11-20T16:53:23;25.55;;;11.30;;
21251;SDS011;10784;50.578;17.878;2022-11-20T16:55:56;34.90;;;13.25;;
21251;SDS011;10784;50.578;17.878;2022-11-20T16:58:29;33.78;;;11.93;;
21251;SDS011;10784;50.578;17.878;2022-11-20T17:01:06;29.58;;;10.80;;
21251;SDS011;10784;50.578;17.878;2022-11-20T17:03:43;31.70;;;11.23;;
21251;SDS011;10784;50.578;17.878;2022-11-20T17:06:19;37.22;;;14.00;;
21251;SDS011;10784;50.578;17.878;2022-11-20T17:08:53;32.97;;;12.75;;
21251;SDS011;10784;50.578;17.878;2022-11-20T17:11:26;41.17;;;15.95;;
21251;SDS011;10784;50.578;17.878;2022-11-20T17:13:59;45.05;;;15.85;;
21251;SDS011;10784;50.578;17.878;2022-11-20T17:16:34;37.83;;;14.15;;
21251;SDS011;10784;50.578;17.878;2022-11-20T17:19:07;31.73;;;12.40;;
21251;SDS011;10784;50.578;17.878;2022-11-20T17:21:40;33.55;;;12.07;;
21251;SDS011;10784;50.578;17.878;2022-11-20T17:24:13;33.38;;;13.52;;
21251;SDS011;10784;50.578;17.878;2022-11-20T17:26:47;40.63;;;13.98;;
21251;SDS011;10784;50.578;17.878;2022-11-20T17:29:20;40.78;;;14.10;;
21251;SDS011;10784;50.578;17.878;2022-11-20T17:31:55;42.45;;;15.23;;
21251;SDS011;10784;50.578;17.878;2022-11-20T17:34:28;63.53;;;20.67;;
21251;SDS011;10784;50.578;17.878;2022-11-20T17:37:00;40.92;;;14.02;;
21251;SDS011;10784;50.578;17.878;2022-11-20T17:39:34;30.88;;;11.15;;
21251;SDS011;10784;50.578;17.878;2022-11-20T17:42:06;35.65;;;12.32;;
21251;SDS011;10784;50.578;17.878;2022-11-20T17:44:58;43.53;;;15.10;;
21251;SDS011;10784;50.578;17.878;2022-11-20T17:47:30;44.58;;;16.92;;
21251;SDS011;10784;50.578;17.878;2022-11-20T17:50:03;37.90;;;13.95;;
21251;SDS011;10784;50.578;17.878;2022-11-20T17:52:36;38.63;;;15.48;;
21251;SDS011;10784;50.578;17.878;2022-11-20T17:55:09;41.65;;;15.43;;
21251;SDS011;10784;50.578;17.878;2022-11-20T17:57:41;40.95;;;15.02;;
21251;SDS011;10784;50.578;17.878;2022-11-20T18:00:34;39.60;;;14.68;;
21251;SDS011;10784;50.578;17.878;2022-11-20T18:03:07;35.97;;;14.43;;
21251;SDS011;10784;50.578;17.878;2022-11-20T18:05:40;42.22;;;15.65;;
21251;SDS011;10784;50.578;17.878;2022-11-20T18:08:13;43.80;;;15.95;;
21251;SDS011;10784;50.578;17.878;2022-11-20T18:10:45;42.58;;;16.67;;
21251;SDS011;10784;50.578;17.878;2022-11-20T18:13:18;46.78;;;16.42;;
21251;SDS011;10784;50.578;17.878;2022-11-20T18:15:51;59.35;;;19.80;;
21251;SDS011;10784;50.578;17.878;2022-11-20T18:18:23;51.85;;;17.38;;
21251;SDS011;10784;50.578;17.878;2022-11-20T18:20:56;50.97;;;18.70;;
21251;SDS011;10784;50.578;17.878;2022-11-20T18:23:29;47.40;;;17.03;;
21251;SDS011;10784;50.578;17.878;2022-11-20T18:26:02;47.42;;;17.52;;
21251;SDS011;10784;50.578;17.878;2022-11-20T18:28:37;58.42;;;18.88;;
21251;SDS011;10784;50.578;17.878;2022-11-20T18:31:11;54.40;;;18.70;;
21251;SDS011;10784;50.578;17.878;2022-11-20T18:33:43;72.38;;;23.25;;
21251;SDS011;10784;50.578;17.878;2022-11-20T18:36:20;68.57;;;22.92;;
21251;SDS011;10784;50.578;17.878;2022-11-20T18:38:54;67.40;;;21.27;;
21251;SDS011;10784;50.578;17.878;2022-11-20T18:41:29;49.42;;;18.83;;
21251;SDS011;10784;50.578;17.878;2022-11-20T18:44:24;49.05;;;16.05;;
21251;SDS011;10784;50.578;17.878;2022-11-20T18:47:35;43.13;;;15.17;;
21251;SDS011;10784;50.578;17.878;2022-11-20T18:50:11;41.38;;;14.63;;
21251;SDS011;10784;50.578;17.878;2022-11-20T18:52:44;40.67;;;14.47;;
21251;SDS011;10784;50.578;17.878;2022-11-20T18:55:18;53.78;;;19.42;;
21251;SDS011;10784;50.578;17.878;2022-11-20T18:57:51;54.80;;;21.73;;
21251;SDS011;10784;50.578;17.878;2022-11-20T19:00:23;62.42;;;22.17;;
21251;SDS011;10784;50.578;17.878;2022-11-20T19:02:56;56.25;;;20.08;;
21251;SDS011;10784;50.578;17.878;2022-11-20T19:05:29;49.40;;;18.13;;
21251;SDS011;10784;50.578;17.878;2022-11-20T19:08:02;56.05;;;19.13;;
21251;SDS011;10784;50.578;17.878;2022-11-20T19:10:35;59.08;;;20.45;;
21251;SDS011;10784;50.578;17.878;2022-11-20T19:13:09;56.47;;;20.37;;
21251;SDS011;10784;50.578;17.878;2022-11-20T19:15:42;56.72;;;19.20;;
21251;SDS011;10784;50.578;17.878;2022-11-20T19:18:15;53.83;;;20.88;;
21251;SDS011;10784;50.578;17.878;2022-11-20T19:20:47;54.80;;;19.52;;
21251;SDS011;10784;50.578;17.878;2022-11-20T19:23:20;53.88;;;18.65;;
21251;SDS011;10784;50.578;17.878;2022-11-20T19:25:57;51.08;;;17.90;;
21251;SDS011;10784;50.578;17.878;2022-11-20T19:28:31;46.92;;;16.85;;
21251;SDS011;10784;50.578;17.878;2022-11-20T19:31:08;47.27;;;16.87;;
21251;SDS011;10784;50.578;17.878;2022-11-20T19:33:41;44.13;;;14.83;;
21251;SDS011;10784;50.578;17.878;2022-11-20T19:36:18;42.00;;;15.75;;
21251;SDS011;10784;50.578;17.878;2022-11-20T19:38:52;49.35;;;17.33;;
21251;SDS011;10784;50.578;17.878;2022-11-20T19:41:26;46.92;;;16.83;;
21251;SDS011;10784;50.578;17.878;2022-11-20T19:44:04;42.78;;;16.50;;
21251;SDS011;10784;50.578;17.878;2022-11-20T19:46:37;44.05;;;15.55;;
21251;SDS011;10784;50.578;17.878;2022-11-20T19:49:11;45.35;;;15.43;;
21251;SDS011;10784;50.578;17.878;2022-11-20T19:51:45;52.67;;;16.50;;
21251;SDS011;10784;50.578;17.878;2022-11-20T19:54:19;47.78;;;16.75;;
21251;SDS011;10784;50.578;17.878;2022-11-20T19:56:51;127.53;;;36.83;;
21251;SDS011;10784;50.578;17.878;2022-11-20T19:59:24;72.40;;;22.33;;
21251;SDS011;10784;50.578;17.878;2022-11-20T20:01:57;75.28;;;23.20;;
21251;SDS011;10784;50.578;17.878;2022-11-20T20:04:31;74.03;;;24.07;;
21251;SDS011;10784;50.578;17.878;2022-11-20T20:07:04;76.30;;;24.02;;
21251;SDS011;10784;50.578;17.878;2022-11-20T20:09:37;72.22;;;24.92;;
21251;SDS011;10784;50.578;17.878;2022-11-20T20:12:10;77.07;;;26.42;;
21251;SDS011;10784;50.578;17.878;2022-11-20T20:14:43;74.45;;;25.02;;
21251;SDS011;10784;50.578;17.878;2022-11-20T20:17:16;70.82;;;24.45;;
21251;SDS011;10784;50.578;17.878;2022-11-20T20:19:49;76.82;;;24.50;;
21251;SDS011;10784;50.578;17.878;2022-11-20T20:22:21;72.75;;;23.58;;
21251;SDS011;10784;50.578;17.878;2022-11-20T20:24:54;72.47;;;24.13;;
21251;SDS011;10784;50.578;17.878;2022-11-20T20:27:27;71.28;;;22.73;;
21251;SDS011;10784;50.578;17.878;2022-11-20T20:30:00;68.88;;;23.15;;
21251;SDS011;10784;50.578;17.878;2022-11-20T20:32:33;64.88;;;23.30;;
21251;SDS011;10784;50.578;17.878;2022-11-20T20:35:06;70.20;;;23.25;;
21251;SDS011;10784;50.578;17.878;2022-11-20T20:37:38;67.18;;;22.90;;
21251;SDS011;10784;50.578;17.878;2022-11-20T20:40:11;54.90;;;19.45;;
21251;SDS011;10784;50.578;17.878;2022-11-20T20:42:46;49.35;;;17.85;;
21251;SDS011;10784;50.578;17.878;2022-11-20T20:45:19;55.38;;;19.40;;
21251;SDS011;10784;50.578;17.878;2022-11-20T20:47:51;52.45;;;18.77;;
21251;SDS011;10784;50.578;17.878;2022-11-20T20:50:24;51.00;;;19.73;;
21251;SDS011;10784;50.578;17.878;2022-11-20T20:52:57;51.33;;;17.70;;
21251;SDS011;10784;50.578;17.878;2022-11-20T20:55:30;47.57;;;17.27;;
21251;SDS011;10784;50.578;17.878;2022-11-20T20:58:04;48.97;;;17.70;;
21251;SDS011;10784;50.578;17.878;2022-11-20T21:00:38;46.58;;;14.85;;
21251;SDS011;10784;50.578;17.878;2022-11-20T21:03:10;42.75;;;15.45;;
21251;SDS011;10784;50.578;17.878;2022-11-20T21:05:43;50.00;;;16.70;;
21251;SDS011;10784;50.578;17.878;2022-11-20T21:08:16;42.58;;;14.90;;
21251;SDS011;10784;50.578;17.878;2022-11-20T21:11:01;45.33;;;16.77;;
21251;SDS011;10784;50.578;17.878;2022-11-20T21:13:35;43.80;;;14.00;;
21251;SDS011;10784;50.578;17.878;2022-11-20T21:16:08;43.45;;;15.27;;
21251;SDS011;10784;50.578;17.878;2022-11-20T21:18:41;40.53;;;16.70;;
21251;SDS011;10784;50.578;17.878;2022-11-20T21:21:14;53.25;;;17.35;;
21251;SDS011;10784;50.578;17.878;2022-11-20T21:24:06;66.68;;;22.23;;
21251;SDS011;10784;50.578;17.878;2022-11-20T21:26:39;75.85;;;26.50;;
21251;SDS011;10784;50.578;17.878;2022-11-20T21:29:11;77.40;;;27.90;;
21251;SDS011;10784;50.578;17.878;2022-11-20T21:31:44;80.68;;;28.80;;
21251;SDS011;10784;50.578;17.878;2022-11-20T21:34:17;135.00;;;41.37;;
21251;SDS011;10784;50.578;17.878;2022-11-20T21:36:50;140.30;;;41.63;;
21251;SDS011;10784;50.578;17.878;2022-11-20T21:39:23;107.85;;;34.00;;
21251;SDS011;10784;50.578;17.878;2022-11-20T21:41:56;101.57;;;34.53;;
21251;SDS011;10784;50.578;17.878;2022-11-20T21:44:29;130.83;;;38.50;;
21251;SDS011;10784;50.578;17.878;2022-11-20T21:47:03;90.32;;;26.38;;
21251;SDS011;10784;50.578;17.878;2022-11-20T21:49:35;81.85;;;26.50;;
21251;SDS011;10784;50.578;17.878;2022-11-20T21:52:11;95.10;;;27.90;;
21251;SDS011;10784;50.578;17.878;2022-11-20T21:54:43;79.70;;;25.67;;
21251;SDS011;10784;50.578;17.878;2022-11-20T21:57:16;90.72;;;27.05;;
21251;SDS011;10784;50.578;17.878;2022-11-20T21:59:49;73.03;;;24.93;;
21251;SDS011;10784;50.578;17.878;2022-11-20T22:02:22;72.40;;;23.20;;
21251;SDS011;10784;50.578;17.878;2022-11-20T22:04:54;82.47;;;26.35;;
21251;SDS011;10784;50.578;17.878;2022-11-20T22:07:27;86.93;;;28.13;;
21251;SDS011;10784;50.578;17.878;2022-11-20T22:10:00;89.93;;;28.77;;
21251;SDS011;10784;50.578;17.878;2022-11-20T22:12:33;59.33;;;22.15;;
21251;SDS011;10784;50.578;17.878;2022-11-20T22:15:06;72.95;;;24.85;;
21251;SDS011;10784;50.578;17.878;2022-11-20T22:17:39;60.10;;;22.42;;
21251;SDS011;10784;50.578;17.878;2022-11-20T22:20:34;65.88;;;22.17;;
21251;SDS011;10784;50.578;17.878;2022-11-20T22:23:07;74.63;;;23.45;;
21251;SDS011;10784;50.578;17.878;2022-11-20T22:25:40;80.13;;;28.15;;
21251;SDS011;10784;50.578;17.878;2022-11-20T22:28:13;67.05;;;21.95;;
21251;SDS011;10784;50.578;17.878;2022-11-20T22:30:45;48.25;;;18.63;;
21251;SDS011;10784;50.578;17.878;2022-11-20T22:33:18;48.85;;;17.42;;
21251;SDS011;10784;50.578;17.878;2022-11-20T22:35:50;49.72;;;16.13;;
21251;SDS011;10784;50.578;17.878;2022-11-20T22:38:23;53.63;;;17.13;;
21251;SDS011;10784;50.578;17.878;2022-11-20T22:41:01;59.88;;;19.38;;
21251;SDS011;10784;50.578;17.878;2022-11-20T22:43:34;53.08;;;18.30;;
21251;SDS011;10784;50.578;17.878;2022-11-20T22:46:08;54.92;;;18.83;;
21251;SDS011;10784;50.578;17.878;2022-11-20T22:48:43;61.88;;;20.42;;
21251;SDS011;10784;50.578;17.878;2022-11-20T22:51:16;68.07;;;22.90;;
21251;SDS011;10784;50.578;17.878;2022-11-20T22:53:49;49.95;;;17.27;;
21251;SDS011;10784;50.578;17.878;2022-11-20T22:56:22;70.82;;;24.67;;
21251;SDS011;10784;50.578;17.878;2022-11-20T22:58:55;64.00;;;21.58;;
21251;SDS011;10784;50.578;17.878;2022-11-20T23:01:29;53.65;;;19.10;;
21251;SDS011;10784;50.578;17.878;2022-11-20T23:04:03;68.78;;;21.98;;
21251;SDS011;10784;50.578;17.878;2022-11-20T23:06:36;65.57;;;20.52;;
21251;SDS011;10784;50.578;17.878;2022-11-20T23:09:09;60.65;;;20.02;;
21251;SDS011;10784;50.578;17.878;2022-11-20T23:11:44;50.78;;;18.17;;
21251;SDS011;10784;50.578;17.878;2022-11-20T23:14:16;47.97;;;17.30;;
21251;SDS011;10784;50.578;17.878;2022-11-20T23:16:52;49.10;;;15.90;;
21251;SDS011;10784;50.578;17.878;2022-11-20T23:19:25;41.70;;;14.75;;
21251;SDS011;10784;50.578;17.878;2022-11-20T23:21:57;53.08;;;16.38;;
21251;SDS011;10784;50.578;17.878;2022-11-20T23:24:30;46.65;;;16.00;;
21251;SDS011;10784;50.578;17.878;2022-11-20T23:27:03;60.45;;;19.02;;
21251;SDS011;10784;50.578;17.878;2022-11-20T23:29:36;57.40;;;19.77;;
21251;SDS011;10784;50.578;17.878;2022-11-20T23:32:08;49.63;;;16.77;;
21251;SDS011;10784;50.578;17.878;2022-11-20T23:34:41;46.88;;;16.67;;
21251;SDS011;10784;50.578;17.878;2022-11-20T23:37:14;45.20;;;14.82;;
21251;SDS011;10784;50.578;17.878;2022-11-20T23:39:47;48.90;;;15.70;;
21251;SDS011;10784;50.578;17.878;2022-11-20T23:42:19;45.90;;;16.30;;
21251;SDS011;10784;50.578;17.878;2022-11-20T23:44:52;50.72;;;15.75;;
21251;SDS011;10784;50.578;17.878;2022-11-20T23:47:25;42.17;;;16.08;;
21251;SDS011;10784;50.578;17.878;2022-11-20T23:49:58;39.13;;;13.20;;
21251;SDS011;10784;50.578;17.878;2022-11-20T23:52:30;40.80;;;13.65;;
21251;SDS011;10784;50.578;17.878;2022-11-20T23:55:03;47.95;;;14.02;;
21251;SDS011;10784;50.578;17.878;2022-11-20T23:57:36;43.17;;;14.57;;
